Time;durP1;ratioP1;P1;durP2;ratioP2;P2;SDS_P1;SDS_P2;PMS_P1;PMS_P2;Temp;Humidity;BMP_temperature;BMP_pressure;BME280_temperature;BME280_humidity;BME280_pressure;Samples;Min_cycle;Max_cycle;Signal;HPM_P1;HPM_P2
2022/11/20 00:01:07;;;;;;;3.28;1.42;;;;;;;;;;5003018;28;20022;-77
2022/11/20 00:03:33;;;;;;;2.72;1.30;;;;;;;;;;5006921;28;20495;-76
2022/11/20 00:06:04;;;;;;;2.78;1.30;;;;;;;;;;4999051;28;20057;-77
2022/11/20 00:08:30;;;;;;;2.53;1.40;;;;;;;;;;5001952;28;20559;-75
2022/11/20 00:10:56;;;;;;;2.70;1.20;;;;;;;;;;5005256;28;20122;-75
2022/11/20 00:13:22;;;;;;;2.92;1.17;;;;;;;;;;5009570;28;20049;-76
2022/11/20 00:15:48;;;;;;;3.92;1.20;;;;;;;;;;5002777;28;20090;-76
2022/11/20 00:18:14;;;;;;;3.75;1.27;;;;;;;;;;5004503;28;20362;-76
2022/11/20 00:20:40;;;;;;;4.40;1.10;;;;;;;;;;4999934;28;20488;-75
2022/11/20 00:23:06;;;;;;;3.58;1.35;;;;;;;;;;5004674;28;20491;-77
2022/11/20 00:25:34;;;;;;;2.42;1.10;;;;;;;;;;5008245;28;20034;-76
2022/11/20 00:28:00;;;;;;;3.22;1.10;;;;;;;;;;5003071;28;20034;-77
2022/11/20 00:30:26;;;;;;;2.88;1.40;;;;;;;;;;5002657;28;20525;-75
2022/11/20 00:32:52;;;;;;;3.90;1.50;;;;;;;;;;5011642;28;20096;-77
2022/11/20 00:35:18;;;;;;;2.40;1.23;;;;;;;;;;5003049;28;20112;-76
2022/11/20 00:37:44;;;;;;;2.88;1.10;;;;;;;;;;5006507;28;20033;-76
2022/11/20 00:40:11;;;;;;;4.25;1.35;;;;;;;;;;5011299;28;20033;-76
2022/11/20 00:42:36;;;;;;;2.28;1.20;;;;;;;;;;5003679;28;20033;-76
2022/11/20 00:45:03;;;;;;;2.33;1.52;;;;;;;;;;5008280;28;20030;-76
2022/11/20 00:47:29;;;;;;;4.32;1.60;;;;;;;;;;5003908;28;20034;-76
2022/11/20 00:49:54;;;;;;;2.38;1.30;;;;;;;;;;5002390;28;20076;-76
2022/11/20 00:52:20;;;;;;;2.63;1.20;;;;;;;;;;4999618;28;20574;-76
2022/11/20 00:54:46;;;;;;;3.20;1.50;;;;;;;;;;5008604;28;20029;-78
2022/11/20 00:57:12;;;;;;;5.22;1.40;;;;;;;;;;5003145;28;20018;-75
2022/11/20 00:59:38;;;;;;;4.38;1.20;;;;;;;;;;5000508;28;20092;-76
2022/11/20 01:02:04;;;;;;;5.80;1.10;;;;;;;;;;5008726;28;20495;-77
2022/11/20 01:04:30;;;;;;;2.97;1.38;;;;;;;;;;5008126;28;20027;-77
2022/11/20 01:06:56;;;;;;;3.20;1.40;;;;;;;;;;5005600;28;20033;-76
2022/11/20 01:09:22;;;;;;;2.60;1.30;;;;;;;;;;5002533;28;20041;-76
2022/11/20 01:11:47;;;;;;;1.90;0.90;;;;;;;;;;5001512;28;20037;-77
2022/11/20 01:14:17;;;;;;;1.88;0.90;;;;;;;;;;5002597;28;20480;-78
2022/11/20 01:16:45;;;;;;;1.92;0.80;;;;;;;;;;5004742;28;20113;-76
2022/11/20 01:19:14;;;;;;;1.63;0.90;;;;;;;;;;5005830;28;20361;-76
2022/11/20 01:21:42;;;;;;;1.83;1.02;;;;;;;;;;5000021;28;20037;-76
2022/11/20 01:24:12;;;;;;;2.78;1.23;;;;;;;;;;5010263;28;20026;-75
2022/11/20 01:26:40;;;;;;;3.28;0.93;;;;;;;;;;5008373;28;20088;-75
2022/11/20 01:29:07;;;;;;;5.32;1.30;;;;;;;;;;5004347;28;20033;-76
2022/11/20 01:31:35;;;;;;;6.65;1.20;;;;;;;;;;5001682;28;20030;-75
2022/11/20 01:34:07;;;;;;;4.03;1.10;;;;;;;;;;5007027;28;20037;-76
2022/11/20 01:36:35;;;;;;;1.88;1.05;;;;;;;;;;5002933;28;20064;-76
2022/11/20 01:39:04;;;;;;;6.28;1.80;;;;;;;;;;5006370;28;20455;-75
2022/11/20 01:44:22;;;;;;;7.45;1.23;;;;;;;;;;4997304;28;20034;-76
2022/11/20 01:47:04;;;;;;;4.72;1.17;;;;;;;;;;5002001;28;20447;-76
2022/11/20 01:49:45;;;;;;;9.68;1.65;;;;;;;;;;5009139;28;20038;-75
2022/11/20 01:52:21;;;;;;;2.97;1.13;;;;;;;;;;4996957;28;20674;-76
2022/11/20 01:54:53;;;;;;;3.03;1.20;;;;;;;;;;5002222;28;20447;-75
2022/11/20 01:57:21;;;;;;;3.58;1.52;;;;;;;;;;5005290;28;20519;-75
2022/11/20 01:59:55;;;;;;;3.42;1.40;;;;;;;;;;5005007;28;20112;-75
2022/11/20 02:02:21;;;;;;;4.32;1.60;;;;;;;;;;5003395;28;20042;-75
2022/11/20 02:04:49;;;;;;;6.90;1.40;;;;;;;;;;4995443;28;20480;-76
2022/11/20 02:07:15;;;;;;;13.07;2.08;;;;;;;;;;5002262;28;20038;-76
2022/11/20 02:09:41;;;;;;;13.70;1.90;;;;;;;;;;5002158;28;20053;-77
2022/11/20 02:13:42;;;;;;;7.85;1.90;;;;;;;;;;5005245;28;20038;-78
2022/11/20 02:14:53;;;;;;;16.77;2.50;;;;;;;;;;5007955;28;20125;-77
2022/11/20 02:17:19;;;;;;;16.77;2.95;;;;;;;;;;5006384;28;20113;-76
2022/11/20 02:19:45;;;;;;;21.40;2.50;;;;;;;;;;5007073;28;20048;-77
2022/11/20 02:22:17;;;;;;;13.98;2.30;;;;;;;;;;5006591;28;20134;-77
2022/11/20 02:24:44;;;;;;;13.77;3.13;;;;;;;;;;5007594;28;20108;-76
2022/11/20 02:27:15;;;;;;;10.10;2.28;;;;;;;;;;5005090;28;20042;-76
2022/11/20 02:29:56;;;;;;;10.40;1.83;;;;;;;;;;5006941;28;20057;-77
2022/11/20 02:32:26;;;;;;;9.32;1.70;;;;;;;;;;5006641;28;20072;-76
2022/11/20 02:34:53;;;;;;;16.98;2.05;;;;;;;;;;5005873;28;20049;-76
2022/11/20 02:37:21;;;;;;;8.88;1.60;;;;;;;;;;5006007;28;20084;-77
2022/11/20 02:39:49;;;;;;;10.40;1.98;;;;;;;;;;5004450;28;20710;-75
2022/11/20 02:42:15;;;;;;;10.93;2.05;;;;;;;;;;5005524;28;20042;-77
2022/11/20 02:44:41;;;;;;;7.78;1.52;;;;;;;;;;5005160;28;20037;-76
2022/11/20 02:47:07;;;;;;;12.85;1.98;;;;;;;;;;5002765;28;20121;-76
2022/11/20 02:49:33;;;;;;;6.05;1.90;;;;;;;;;;5005246;28;20037;-76
2022/11/20 02:51:59;;;;;;;13.35;2.92;;;;;;;;;;5006121;28;20022;-74
2022/11/20 02:54:25;;;;;;;7.35;1.95;;;;;;;;;;5005872;28;20057;-76
2022/11/20 02:56:51;;;;;;;13.55;2.38;;;;;;;;;;5006462;28;20507;-76
2022/11/20 02:59:17;;;;;;;5.18;1.50;;;;;;;;;;5005442;28;20034;-77
2022/11/20 03:01:43;;;;;;;14.82;2.08;;;;;;;;;;5005502;28;20063;-76
2022/11/20 03:04:09;;;;;;;7.82;1.77;;;;;;;;;;5005437;28;20116;-76
2022/11/20 03:06:35;;;;;;;8.90;1.90;;;;;;;;;;5006736;28;20458;-76
2022/11/20 03:09:01;;;;;;;15.82;2.10;;;;;;;;;;5005633;28;20036;-76
2022/11/20 03:11:28;;;;;;;16.05;2.20;;;;;;;;;;5005609;28;20038;-75
2022/11/20 03:13:53;;;;;;;11.25;2.28;;;;;;;;;;5004457;28;20041;-76
2022/11/20 03:16:21;;;;;;;9.35;2.42;;;;;;;;;;5003241;28;20404;-75
2022/11/20 03:18:48;;;;;;;8.88;2.25;;;;;;;;;;5001970;28;20121;-77
2022/11/20 03:21:16;;;;;;;13.32;1.85;;;;;;;;;;5006319;28;20132;-77
2022/11/20 03:23:42;;;;;;;13.10;2.08;;;;;;;;;;5005623;28;20030;-76
2022/11/20 03:26:16;;;;;;;13.23;2.83;;;;;;;;;;5008715;28;20030;-76
2022/11/20 03:28:47;;;;;;;8.07;1.55;;;;;;;;;;5009567;28;20510;-75
2022/11/20 03:31:15;;;;;;;13.23;2.20;;;;;;;;;;5008790;28;20117;-76
2022/11/20 03:33:41;;;;;;;6.80;1.67;;;;;;;;;;5006716;28;20401;-76
2022/11/20 03:36:13;;;;;;;4.90;1.65;;;;;;;;;;5008953;28;20476;-76
2022/11/20 03:38:40;;;;;;;6.47;1.60;;;;;;;;;;5008096;28;20033;-76
2022/11/20 03:41:09;;;;;;;7.97;1.67;;;;;;;;;;5007490;28;20036;-76
2022/11/20 03:43:35;;;;;;;9.25;2.05;;;;;;;;;;5008489;28;20423;-76
2022/11/20 03:46:01;;;;;;;5.05;1.52;;;;;;;;;;5009869;28;20025;-75
2022/11/20 03:48:27;;;;;;;7.10;1.83;;;;;;;;;;5008508;28;20095;-75
2022/11/20 03:51:06;;;;;;;4.60;1.25;;;;;;;;;;5007661;28;20589;-76
2022/11/20 03:53:32;;;;;;;7.93;1.60;;;;;;;;;;5008638;28;20443;-75
2022/11/20 03:55:57;;;;;;;6.63;1.73;;;;;;;;;;5009139;28;20041;-74
2022/11/20 03:58:23;;;;;;;7.10;1.80;;;;;;;;;;5008758;28;20033;-75
2022/11/20 04:00:49;;;;;;;4.78;1.63;;;;;;;;;;5007744;28;20025;-75
2022/11/20 04:03:15;;;;;;;5.72;2.03;;;;;;;;;;5008751;28;20033;-76
2022/11/20 04:05:41;;;;;;;6.65;1.83;;;;;;;;;;5007794;28;20029;-75
2022/11/20 04:08:07;;;;;;;8.13;1.70;;;;;;;;;;5008576;28;20072;-75
2022/11/20 04:10:33;;;;;;;10.93;2.25;;;;;;;;;;5007264;28;20072;-76
2022/11/20 04:12:59;;;;;;;6.82;1.98;;;;;;;;;;5006451;28;20026;-76
2022/11/20 04:15:25;;;;;;;12.45;2.97;;;;;;;;;;5009800;28;20353;-75
2022/11/20 04:17:50;;;;;;;12.23;2.47;;;;;;;;;;5007894;28;20404;-75
2022/11/20 04:20:16;;;;;;;11.70;2.28;;;;;;;;;;5004604;28;20037;-75
2022/11/20 04:22:42;;;;;;;13.50;2.42;;;;;;;;;;5005065;28;20042;-76
2022/11/20 04:25:08;;;;;;;22.75;4.25;;;;;;;;;;5010464;28;20139;-76
2022/11/20 04:27:34;;;;;;;12.15;2.30;;;;;;;;;;5009820;28;20138;-76
2022/11/20 04:30:00;;;;;;;16.85;2.38;;;;;;;;;;5005727;28;20037;-75
2022/11/20 04:32:26;;;;;;;10.52;2.53;;;;;;;;;;5009736;28;20512;-76
2022/11/20 04:34:52;;;;;;;7.63;2.05;;;;;;;;;;5009709;28;20491;-75
2022/11/20 04:37:17;;;;;;;7.65;2.33;;;;;;;;;;5009972;28;20037;-74
2022/11/20 04:39:43;;;;;;;6.93;2.08;;;;;;;;;;5006603;28;20100;-75
2022/11/20 04:42:28;;;;;;;7.25;2.50;;;;;;;;;;5008832;28;20037;-75
2022/11/20 04:44:54;;;;;;;6.45;2.40;;;;;;;;;;5007752;28;20037;-75
2022/11/20 04:47:21;;;;;;;10.05;2.60;;;;;;;;;;5013345;28;20133;-75
2022/11/20 04:49:47;;;;;;;10.98;2.72;;;;;;;;;;5011126;28;20619;-75
2022/11/20 04:52:13;;;;;;;13.38;2.30;;;;;;;;;;5005698;28;20109;-75
2022/11/20 04:54:39;;;;;;;10.55;2.42;;;;;;;;;;5009450;28;20040;-75
2022/11/20 04:57:04;;;;;;;11.70;2.38;;;;;;;;;;5012523;28;20021;-74
2022/11/20 04:59:30;;;;;;;12.27;3.08;;;;;;;;;;5009550;28;20053;-75
2022/11/20 05:01:56;;;;;;;7.45;2.58;;;;;;;;;;5009906;28;20193;-75
2022/11/20 05:04:22;;;;;;;9.25;2.40;;;;;;;;;;4998891;28;20120;-76
2022/11/20 05:06:50;;;;;;;12.13;2.42;;;;;;;;;;5005742;28;20210;-76
2022/11/20 05:09:16;;;;;;;6.82;2.40;;;;;;;;;;5005116;28;20030;-74
2022/11/20 05:11:42;;;;;;;7.90;2.00;;;;;;;;;;5005943;28;20032;-74
2022/11/20 05:14:08;;;;;;;8.70;2.42;;;;;;;;;;5001664;28;20029;-75
2022/11/20 05:16:35;;;;;;;7.22;2.10;;;;;;;;;;5002738;28;20034;-75
2022/11/20 05:19:02;;;;;;;5.40;2.33;;;;;;;;;;5005662;28;20038;-75
2022/11/20 05:21:32;;;;;;;9.65;2.40;;;;;;;;;;4999721;28;20149;-75
2022/11/20 05:23:58;;;;;;;5.07;1.95;;;;;;;;;;5003212;28;20117;-75
2022/11/20 05:26:24;;;;;;;6.30;2.30;;;;;;;;;;5004868;28;20037;-75
2022/11/20 05:28:50;;;;;;;5.13;2.22;;;;;;;;;;5001879;28;20068;-74
2022/11/20 05:31:22;;;;;;;9.27;2.55;;;;;;;;;;5006313;28;20074;-76
2022/11/20 05:33:48;;;;;;;6.78;2.35;;;;;;;;;;5008267;28;20436;-76
2022/11/20 05:36:15;;;;;;;8.38;2.38;;;;;;;;;;5005891;28;20105;-76
2022/11/20 05:38:42;;;;;;;6.30;2.22;;;;;;;;;;4999396;28;20331;-75
2022/11/20 05:41:14;;;;;;;10.57;2.58;;;;;;;;;;5007891;28;20026;-76
2022/11/20 05:43:42;;;;;;;5.72;2.70;;;;;;;;;;5008920;28;20077;-76
2022/11/20 05:46:10;;;;;;;7.88;2.45;;;;;;;;;;5014815;28;20079;-76
2022/11/20 05:48:37;;;;;;;11.52;2.28;;;;;;;;;;5010451;28;20042;-76
2022/11/20 05:51:05;;;;;;;5.93;2.22;;;;;;;;;;4993565;28;20041;-76
2022/11/20 05:53:33;;;;;;;5.95;2.28;;;;;;;;;;4994351;28;20432;-76
2022/11/20 05:56:01;;;;;;;8.55;2.30;;;;;;;;;;4994754;28;20503;-76
2022/11/20 05:58:28;;;;;;;6.65;2.75;;;;;;;;;;4994425;28;20034;-77
2022/11/20 06:00:54;;;;;;;6.82;2.95;;;;;;;;;;4992440;28;20022;-76
2022/11/20 06:03:20;;;;;;;8.27;2.25;;;;;;;;;;4992984;28;20408;-76
2022/11/20 06:05:47;;;;;;;7.85;2.38;;;;;;;;;;4994538;28;20029;-76
2022/11/20 06:08:13;;;;;;;12.00;2.90;;;;;;;;;;4993994;28;20042;-75
2022/11/20 06:10:39;;;;;;;8.90;2.70;;;;;;;;;;4993913;28;20504;-77
2022/11/20 06:13:04;;;;;;;6.78;2.80;;;;;;;;;;4993728;28;20022;-76
2022/11/20 06:15:30;;;;;;;12.82;3.20;;;;;;;;;;5007441;28;20065;-77
2022/11/20 06:17:56;;;;;;;13.43;2.80;;;;;;;;;;5014036;28;20018;-76
2022/11/20 06:20:22;;;;;;;12.82;3.17;;;;;;;;;;5014158;28;20480;-76
2022/11/20 06:22:48;;;;;;;14.60;3.20;;;;;;;;;;5011732;28;20056;-77
2022/11/20 06:25:15;;;;;;;8.75;3.03;;;;;;;;;;4998080;28;20046;-76
2022/11/20 06:27:41;;;;;;;7.93;2.97;;;;;;;;;;4998899;28;20057;-76
2022/11/20 06:30:07;;;;;;;11.32;2.85;;;;;;;;;;5011477;28;20033;-77
2022/11/20 06:32:33;;;;;;;8.95;3.00;;;;;;;;;;5012743;28;20025;-77
2022/11/20 06:34:59;;;;;;;11.50;2.70;;;;;;;;;;5011490;28;20116;-77
2022/11/20 06:37:25;;;;;;;15.77;2.80;;;;;;;;;;5012957;28;20564;-76
2022/11/20 06:39:51;;;;;;;10.50;3.35;;;;;;;;;;5012458;28;20044;-76
2022/11/20 06:42:17;;;;;;;7.63;2.90;;;;;;;;;;5012772;28;20033;-78
2022/11/20 06:44:43;;;;;;;10.15;3.28;;;;;;;;;;5012449;28;20031;-77
2022/11/20 06:47:09;;;;;;;11.85;2.60;;;;;;;;;;5012419;28;20026;-76
2022/11/20 06:49:36;;;;;;;12.60;2.78;;;;;;;;;;5012448;28;20041;-77
2022/11/20 06:52:02;;;;;;;13.98;3.10;;;;;;;;;;5012359;28;20049;-77
2022/11/20 06:54:28;;;;;;;11.00;2.90;;;;;;;;;;5001200;28;20061;-78
2022/11/20 06:56:54;;;;;;;11.50;3.45;;;;;;;;;;4993009;28;20489;-77
2022/11/20 06:59:21;;;;;;;18.08;4.18;;;;;;;;;;4991685;28;20085;-77
2022/11/20 07:01:47;;;;;;;12.65;3.20;;;;;;;;;;4992988;28;20030;-77
2022/11/20 07:04:12;;;;;;;15.48;2.72;;;;;;;;;;4992793;28;20030;-78
2022/11/20 07:06:38;;;;;;;19.05;4.10;;;;;;;;;;5009187;28;20046;-77
2022/11/20 07:09:04;;;;;;;15.80;3.22;;;;;;;;;;5012492;28;20030;-78
2022/11/20 07:11:30;;;;;;;13.60;2.53;;;;;;;;;;5011775;28;20053;-76
2022/11/20 07:13:57;;;;;;;15.65;3.40;;;;;;;;;;5012104;28;20026;-78
2022/11/20 07:16:23;;;;;;;16.83;3.85;;;;;;;;;;5012211;28;20092;-78
2022/11/20 07:18:49;;;;;;;18.13;3.58;;;;;;;;;;5012095;28;20026;-78
2022/11/20 07:21:15;;;;;;;15.35;3.42;;;;;;;;;;5009242;28;20387;-76
2022/11/20 07:23:41;;;;;;;15.30;3.13;;;;;;;;;;5011652;28;20030;-76
2022/11/20 07:26:09;;;;;;;16.50;4.55;;;;;;;;;;5012013;28;20036;-77
2022/11/20 07:28:35;;;;;;;24.27;4.05;;;;;;;;;;5011081;28;20475;-77
2022/11/20 07:31:02;;;;;;;16.08;3.40;;;;;;;;;;5008341;28;20038;-76
2022/11/20 07:33:29;;;;;;;16.38;3.13;;;;;;;;;;5012257;28;20471;-76
2022/11/20 07:35:55;;;;;;;23.30;3.78;;;;;;;;;;5012479;28;20416;-77
2022/11/20 07:38:20;;;;;;;17.70;3.78;;;;;;;;;;5012269;28;20029;-77
2022/11/20 07:40:47;;;;;;;17.08;3.60;;;;;;;;;;5011939;28;20488;-77
2022/11/20 07:43:13;;;;;;;23.55;4.13;;;;;;;;;;5011640;28;20026;-77
2022/11/20 07:45:39;;;;;;;22.85;3.70;;;;;;;;;;5027522;28;20049;-76
2022/11/20 07:48:05;;;;;;;20.90;4.15;;;;;;;;;;5010399;28;20022;-77
2022/11/20 07:50:31;;;;;;;19.80;3.55;;;;;;;;;;5014167;28;20093;-76
2022/11/20 07:53:04;;;;;;;17.17;3.17;;;;;;;;;;5012845;28;20033;-76
2022/11/20 07:55:31;;;;;;;18.70;4.03;;;;;;;;;;5008973;28;20032;-76
2022/11/20 07:57:57;;;;;;;21.58;3.55;;;;;;;;;;4991563;28;20033;-77
2022/11/20 08:00:23;;;;;;;17.02;4.28;;;;;;;;;;4992725;28;20085;-77
2022/11/20 08:02:49;;;;;;;25.92;5.10;;;;;;;;;;4990845;28;20484;-77
2022/11/20 08:05:15;;;;;;;19.42;4.57;;;;;;;;;;4983331;28;20124;-77
2022/11/20 08:07:43;;;;;;;16.67;4.22;;;;;;;;;;5011086;28;20109;-76
2022/11/20 08:10:11;;;;;;;23.95;4.53;;;;;;;;;;5008791;28;20033;-77
2022/11/20 08:15:33;;;;;;;20.45;4.32;;;;;;;;;;5015271;28;20034;-78
2022/11/20 08:18:04;;;;;;;18.60;3.78;;;;;;;;;;5015373;28;20109;-78
2022/11/20 08:20:30;;;;;;;19.83;4.50;;;;;;;;;;5013862;28;20122;-77
2022/11/20 08:23:05;;;;;;;22.15;4.15;;;;;;;;;;5010128;28;20045;-72
2022/11/20 08:25:33;;;;;;;23.42;3.95;;;;;;;;;;5011947;28;20041;-73
2022/11/20 08:28:00;;;;;;;23.40;5.70;;;;;;;;;;5014292;28;20038;-74
2022/11/20 08:30:26;;;;;;;19.23;4.78;;;;;;;;;;5012593;28;20372;-74
2022/11/20 08:32:53;;;;;;;22.88;4.40;;;;;;;;;;5013049;28;20145;-74
2022/11/20 08:35:20;;;;;;;27.85;5.95;;;;;;;;;;5014184;28;20099;-74
2022/11/20 08:37:47;;;;;;;22.98;5.20;;;;;;;;;;4994842;28;20026;-73
2022/11/20 08:40:14;;;;;;;19.38;5.40;;;;;;;;;;4998813;28;20053;-74
2022/11/20 08:42:50;;;;;;;18.30;5.20;;;;;;;;;;4995061;28;20027;-73
2022/11/20 08:45:17;;;;;;;22.50;4.95;;;;;;;;;;4995085;28;20061;-74
2022/11/20 08:47:44;;;;;;;25.88;5.47;;;;;;;;;;4998099;28;20105;-74
2022/11/20 08:50:11;;;;;;;24.60;6.82;;;;;;;;;;5013419;28;20510;-74
2022/11/20 08:52:37;;;;;;;28.38;6.18;;;;;;;;;;5002019;28;20022;-74
2022/11/20 08:55:04;;;;;;;25.98;6.93;;;;;;;;;;4995154;28;20054;-74
2022/11/20 08:57:37;;;;;;;23.83;5.43;;;;;;;;;;4997211;28;20031;-72
2022/11/20 09:00:05;;;;;;;15.73;4.95;;;;;;;;;;4997201;28;20081;-72
2022/11/20 09:02:32;;;;;;;26.33;6.82;;;;;;;;;;4996617;28;20115;-73
2022/11/20 09:04:58;;;;;;;14.85;4.95;;;;;;;;;;5011685;28;20033;-73
2022/11/20 09:07:24;;;;;;;24.23;5.72;;;;;;;;;;5013841;28;20040;-72
2022/11/20 09:09:50;;;;;;;24.25;4.32;;;;;;;;;;5013690;28;20042;-73
2022/11/20 09:12:16;;;;;;;19.55;5.10;;;;;;;;;;5013570;28;20091;-72
2022/11/20 09:14:42;;;;;;;22.33;5.28;;;;;;;;;;5013641;28;20144;-73
2022/11/20 09:17:10;;;;;;;25.42;5.32;;;;;;;;;;5013348;28;20026;-72
2022/11/20 09:19:36;;;;;;;22.27;5.28;;;;;;;;;;5011887;28;20030;-73
2022/11/20 09:22:02;;;;;;;25.05;5.63;;;;;;;;;;5012841;28;20060;-74
2022/11/20 09:24:28;;;;;;;23.88;4.70;;;;;;;;;;5013788;28;20372;-73
2022/11/20 09:26:54;;;;;;;21.20;4.57;;;;;;;;;;5014161;28;20038;-72
2022/11/20 09:29:20;;;;;;;29.38;4.88;;;;;;;;;;5011176;28;20091;-73
2022/11/20 09:31:45;;;;;;;24.50;4.93;;;;;;;;;;5012485;28;20057;-72
2022/11/20 09:34:11;;;;;;;23.10;4.50;;;;;;;;;;5013741;28;20040;-73
2022/11/20 09:36:37;;;;;;;20.02;4.85;;;;;;;;;;5013199;28;20026;-72
2022/11/20 09:39:03;;;;;;;22.80;4.50;;;;;;;;;;5011643;28;20065;-73
2022/11/20 09:41:29;;;;;;;25.67;4.43;;;;;;;;;;5014119;28;20064;-73
2022/11/20 09:44:12;;;;;;;23.30;3.88;;;;;;;;;;5013940;28;20030;-73
2022/11/20 09:47:01;;;;;;;25.08;4.53;;;;;;;;;;5013915;28;20049;-73
2022/11/20 09:49:40;;;;;;;24.40;4.13;;;;;;;;;;5013797;28;20037;-73
2022/11/20 09:52:25;;;;;;;19.55;3.67;;;;;;;;;;5013568;28;20037;-73
2022/11/20 09:54:53;;;;;;;23.20;4.40;;;;;;;;;;5013591;28;20484;-73
2022/11/20 09:57:27;;;;;;;26.65;4.93;;;;;;;;;;5014309;28;20463;-73
2022/11/20 10:00:05;;;;;;;22.17;4.53;;;;;;;;;;5013789;28;20395;-74
2022/11/20 10:03:11;;;;;;;16.08;4.35;;;;;;;;;;5013608;28;20555;-73
2022/11/20 10:05:43;;;;;;;23.00;4.22;;;;;;;;;;5013577;28;20034;-73
2022/11/20 10:08:31;;;;;;;21.90;4.80;;;;;;;;;;5013414;28;20033;-73
2022/11/20 10:11:19;;;;;;;19.75;3.80;;;;;;;;;;5013335;28;20053;-73
2022/11/20 10:14:08;;;;;;;19.75;4.10;;;;;;;;;;5013691;28;20375;-73
2022/11/20 10:16:56;;;;;;;19.13;4.63;;;;;;;;;;5013443;28;20033;-73
2022/11/20 10:19:59;;;;;;;13.05;4.03;;;;;;;;;;5013424;28;20419;-73
2022/11/20 10:22:40;;;;;;;20.27;4.35;;;;;;;;;;5013024;28;20056;-73
2022/11/20 10:25:19;;;;;;;34.92;4.65;;;;;;;;;;5013298;28;20399;-73
2022/11/20 10:27:53;;;;;;;19.63;3.97;;;;;;;;;;5011965;28;20034;-73
2022/11/20 10:30:24;;;;;;;14.45;2.90;;;;;;;;;;5011646;28;20038;-72
2022/11/20 10:33:22;;;;;;;25.27;4.07;;;;;;;;;;5013231;28;20038;-72
2022/11/20 10:36:15;;;;;;;25.17;4.75;;;;;;;;;;5008606;28;20050;-73
2022/11/20 10:38:49;;;;;;;20.57;4.70;;;;;;;;;;5012988;28;20502;-73
2022/11/20 10:41:40;;;;;;;23.20;5.97;;;;;;;;;;5012871;28;20041;-72
2022/11/20 10:45:00;;;;;;;24.95;6.18;;;;;;;;;;5012604;28;20096;-74
2022/11/20 10:47:10;;;;;;;30.75;6.88;;;;;;;;;;5011628;28;20034;-73
2022/11/20 10:49:36;;;;;;;24.42;6.13;;;;;;;;;;5012512;28;20030;-72
2022/11/20 10:52:10;;;;;;;24.65;5.30;;;;;;;;;;5012743;28;20553;-73
2022/11/20 10:54:42;;;;;;;17.67;4.18;;;;;;;;;;5012562;28;20061;-73
2022/11/20 10:57:38;;;;;;;15.50;4.35;;;;;;;;;;5012763;28;20034;-72
2022/11/20 11:00:10;;;;;;;21.95;4.80;;;;;;;;;;4991764;28;20411;-73
2022/11/20 11:02:49;;;;;;;19.07;4.37;;;;;;;;;;5012264;28;20483;-73
2022/11/20 11:05:36;;;;;;;20.95;4.32;;;;;;;;;;5012550;28;20045;-73
2022/11/20 11:08:05;;;;;;;21.98;3.33;;;;;;;;;;5012788;28;20066;-72
2022/11/20 11:10:59;;;;;;;9.80;2.72;;;;;;;;;;5012984;28;20053;-74
2022/11/20 11:13:26;;;;;;;;;;;;;;;;;;5013166;28;20029;-72
2022/11/20 11:15:52;;;;;;;12.10;3.45;;;;;;;;;;5012912;28;19913;-73
2022/11/20 11:18:33;;;;;;;17.38;3.28;;;;;;;;;;5013003;28;20095;-72
2022/11/20 11:21:02;;;;;;;17.00;5.20;;;;;;;;;;5010959;28;20030;-73
2022/11/20 11:23:40;;;;;;;15.23;3.85;;;;;;;;;;5012715;28;20029;-72
2022/11/20 11:26:18;;;;;;;10.55;3.28;;;;;;;;;;5012684;28;20033;-74
2022/11/20 11:29:04;;;;;;;18.35;3.55;;;;;;;;;;5012225;28;20085;-74
2022/11/20 11:31:35;;;;;;;17.45;4.63;;;;;;;;;;5011903;28;20068;-73
2022/11/20 11:34:19;;;;;;;22.42;4.25;;;;;;;;;;5011908;28;20479;-73
2022/11/20 11:36:57;;;;;;;22.77;4.63;;;;;;;;;;5012315;28;20419;-72
2022/11/20 11:39:24;;;;;;;18.83;4.47;;;;;;;;;;5012316;28;20065;-72
2022/11/20 11:41:51;;;;;;;16.30;4.70;;;;;;;;;;5012235;28;20072;-72
2022/11/20 11:47:24;;;;;;;18.92;3.85;;;;;;;;;;5015961;28;20030;-72
2022/11/20 11:50:09;;;;;;;21.90;4.82;;;;;;;;;;5016173;28;20030;-72
2022/11/20 11:52:50;;;;;;;19.25;5.75;;;;;;;;;;5015759;28;20459;-72
2022/11/20 11:55:42;;;;;;;26.45;5.05;;;;;;;;;;5015604;28;20037;-73
2022/11/20 11:58:29;;;;;;;20.42;4.97;;;;;;;;;;5015851;28;20026;-72
2022/11/20 12:01:04;;;;;;;17.50;5.28;;;;;;;;;;5015535;28;20025;-73
2022/11/20 12:03:40;;;;;;;20.75;5.15;;;;;;;;;;5015431;28;20176;-73
2022/11/20 12:06:12;;;;;;;20.92;5.80;;;;;;;;;;5015905;28;20120;-72
2022/11/20 12:08:53;;;;;;;18.85;5.20;;;;;;;;;;5015938;28;20152;-73
2022/11/20 12:11:43;;;;;;;16.42;5.60;;;;;;;;;;5015621;28;20087;-72
2022/11/20 12:14:33;;;;;;;15.07;5.90;;;;;;;;;;5015287;28;20030;-72
2022/11/20 12:17:01;;;;;;;20.50;7.15;;;;;;;;;;5015406;28;20456;-73
2022/11/20 12:19:33;;;;;;;18.40;6.32;;;;;;;;;;5015654;28;20472;-72
2022/11/20 12:22:26;;;;;;;20.00;7.18;;;;;;;;;;5014944;28;20054;-72
2022/11/20 12:25:16;;;;;;;23.13;8.27;;;;;;;;;;5014331;28;20050;-71
2022/11/20 12:28:00;;;;;;;24.33;7.88;;;;;;;;;;5013194;28;20038;-71
2022/11/20 12:30:26;;;;;;;18.05;6.78;;;;;;;;;;4994179;28;20034;-72
2022/11/20 12:33:13;;;;;;;18.88;6.88;;;;;;;;;;4994665;28;20022;-71
2022/11/20 12:35:51;;;;;;;17.88;6.13;;;;;;;;;;4994491;28;20109;-72
2022/11/20 12:38:45;;;;;;;18.27;6.03;;;;;;;;;;4994505;28;20054;-72
2022/11/20 12:45:08;;;;;;;;;;;;;;;;;;4995033;28;20400;-71
2022/11/20 12:47:23;;;;;;;74.75;40.67;;;;;;;;;;4993417;28;20039;-72
2022/11/20 12:49:57;;;;;;;72.05;35.80;;;;;;;;;;4993983;28;20038;-72
2022/11/20 12:52:26;;;;;;;35.05;18.42;;;;;;;;;;4994071;28;20034;-72
2022/11/20 12:55:09;;;;;;;59.78;31.13;;;;;;;;;;4993926;28;20436;-71
2022/11/20 12:57:53;;;;;;;21.33;9.23;;;;;;;;;;4992387;28;20077;-72
2022/11/20 13:00:22;;;;;;;46.60;20.80;;;;;;;;;;4997475;28;20121;-72
2022/11/20 13:03:08;;;;;;;15.10;5.68;;;;;;;;;;5013529;28;20042;-72
2022/11/20 13:05:46;;;;;;;12.63;3.78;;;;;;;;;;5013914;28;20049;-72
2022/11/20 13:08:39;;;;;;;13.52;3.97;;;;;;;;;;5013469;28;20030;-72
2022/11/20 13:11:17;;;;;;;14.30;3.55;;;;;;;;;;5012744;28;20132;-72
2022/11/20 13:14:04;;;;;;;14.55;3.20;;;;;;;;;;5013219;28;20080;-73
2022/11/20 13:16:52;;;;;;;14.00;3.00;;;;;;;;;;5013407;28;20044;-72
2022/11/20 13:19:18;;;;;;;11.52;2.50;;;;;;;;;;4993819;28;20039;-72
2022/11/20 13:21:49;;;;;;;10.38;3.38;;;;;;;;;;4939685;28;1573646;-72
2022/11/20 13:24:29;;;;;;;14.43;3.10;;;;;;;;;;4994664;28;20423;-73
2022/11/20 13:27:07;;;;;;;30.75;16.55;;;;;;;;;;4994526;28;20150;-73
2022/11/20 13:29:35;;;;;;;22.83;8.57;;;;;;;;;;4994538;28;20041;-72
2022/11/20 13:32:16;;;;;;;19.55;7.65;;;;;;;;;;4994768;28;20026;-72
2022/11/20 13:35:01;;;;;;;27.48;13.43;;;;;;;;;;4996154;28;20049;-73
2022/11/20 13:37:37;;;;;;;17.70;6.57;;;;;;;;;;5012148;28;20041;-73
2022/11/20 13:40:12;;;;;;;15.95;4.68;;;;;;;;;;5014173;28;20044;-73
2022/11/20 13:42:55;;;;;;;13.65;3.40;;;;;;;;;;5014298;28;20034;-72
2022/11/20 13:45:23;;;;;;;14.05;3.60;;;;;;;;;;4996251;28;20037;-72
2022/11/20 13:47:50;;;;;;;16.08;3.65;;;;;;;;;;5013915;28;20025;-72
2022/11/20 13:50:17;;;;;;;8.85;3.30;;;;;;;;;;5013617;28;20045;-74
2022/11/20 13:53:19;;;;;;;17.40;4.10;;;;;;;;;;5013909;28;20373;-73
2022/11/20 13:55:58;;;;;;;10.75;3.78;;;;;;;;;;5028349;28;20507;-73
2022/11/20 13:58:45;;;;;;;10.20;3.15;;;;;;;;;;5012990;28;20038;-73
2022/11/20 14:01:22;;;;;;;61.42;34.13;;;;;;;;;;5009436;28;20057;-73
2022/11/20 14:03:49;;;;;;;75.93;40.42;;;;;;;;;;5010886;28;20061;-73
2022/11/20 14:06:27;;;;;;;44.95;24.40;;;;;;;;;;5012998;28;20057;-72
2022/11/20 14:08:53;;;;;;;28.25;11.43;;;;;;;;;;5011488;28;20065;-73
2022/11/20 14:11:25;;;;;;;22.60;8.82;;;;;;;;;;5013264;28;20056;-73
2022/11/20 14:13:59;;;;;;;14.43;5.63;;;;;;;;;;5012767;28;20042;-73
2022/11/20 14:16:27;;;;;;;14.13;5.50;;;;;;;;;;5013255;28;20034;-72
2022/11/20 14:18:54;;;;;;;26.98;9.85;;;;;;;;;;5012973;28;20479;-74
2022/11/20 14:21:29;;;;;;;21.80;8.77;;;;;;;;;;5013081;28;20530;-74
2022/11/20 14:24:10;;;;;;;15.35;4.68;;;;;;;;;;5013637;28;20494;-73
2022/11/20 14:26:41;;;;;;;11.85;3.72;;;;;;;;;;5012506;28;20057;-72
2022/11/20 14:29:23;;;;;;;16.58;4.90;;;;;;;;;;5012792;28;20030;-73
2022/11/20 14:31:54;;;;;;;17.23;4.63;;;;;;;;;;5012658;28;20103;-73
2022/11/20 14:34:28;;;;;;;16.25;4.47;;;;;;;;;;5012705;28;20131;-74
2022/11/20 14:37:00;;;;;;;16.05;6.15;;;;;;;;;;5012790;28;20029;-73
2022/11/20 14:39:37;;;;;;;12.48;4.15;;;;;;;;;;5012397;28;20069;-73
2022/11/20 14:42:18;;;;;;;10.38;3.25;;;;;;;;;;5012574;28;20084;-73
2022/11/20 14:44:45;;;;;;;10.88;2.97;;;;;;;;;;5012431;28;20026;-73
2022/11/20 14:47:15;;;;;;;15.43;5.57;;;;;;;;;;5012705;28;20022;-73
2022/11/20 14:49:42;;;;;;;18.15;5.82;;;;;;;;;;5012423;28;20037;-73
2022/11/20 14:52:22;;;;;;;12.70;4.32;;;;;;;;;;5009496;28;20046;-73
2022/11/20 14:54:54;;;;;;;14.23;3.47;;;;;;;;;;5010494;28;20036;-73
2022/11/20 14:57:31;;;;;;;14.32;3.53;;;;;;;;;;5012051;28;20029;-73
2022/11/20 15:00:12;;;;;;;13.85;2.70;;;;;;;;;;4987341;28;20078;-76
2022/11/20 15:02:44;;;;;;;12.07;2.47;;;;;;;;;;4982711;28;20048;-75
2022/11/20 15:05:10;;;;;;;10.77;2.42;;;;;;;;;;4980778;28;20033;-74
2022/11/20 15:07:40;;;;;;;14.35;4.05;;;;;;;;;;4981647;28;20027;-73